createdAt,value
2016-06-03T00:00:19.107Z,0
2016-06-03T00:01:02.828Z,0
2016-06-03T00:02:31.237Z,0
2016-06-03T00:03:01.537Z,0
2016-06-03T00:05:02.619Z,0
2016-06-03T00:05:15.244Z,0
2016-06-03T00:06:15.325Z,0
2016-06-03T00:07:28.047Z,0
2016-06-03T00:08:28.081Z,0
2016-06-03T00:09:15.317Z,0
2016-06-03T00:11:12.432Z,0
2016-06-03T00:11:28.182Z,0
2016-06-03T00:12:25.139Z,0
2016-06-03T00:13:25.125Z,0
2016-06-03T00:14:44.397Z,0
2016-06-03T00:15:25.225Z,0
2016-06-03T00:17:40.402Z,0
2016-06-03T00:18:40.530Z,0
2016-06-03T00:19:40.470Z,0
2016-06-03T00:20:43.506Z,0
2016-06-03T00:21:40.521Z,0
2016-06-03T00:22:40.556Z,0
2016-06-03T00:23:53.358Z,0
2016-06-03T00:24:40.577Z,0
2016-06-03T00:25:59.816Z,0
2016-06-03T00:26:42.082Z,0
2016-06-03T00:28:50.060Z,0
2016-06-03T00:30:09.296Z,0
2016-06-03T00:31:03.595Z,0
2016-06-03T00:32:47.117Z,0
2016-06-03T00:32:59.757Z,0
2016-06-03T00:35:09.434Z,0
2016-06-03T00:36:35.203Z,0
2016-06-03T00:37:22.206Z,0
2016-06-03T00:38:42.208Z,0
2016-06-03T00:39:35.211Z,0
2016-06-03T00:40:10.042Z,0
2016-06-03T00:41:09.561Z,0
2016-06-03T00:43:19.019Z,0
2016-06-03T00:44:32.052Z,0
2016-06-03T00:45:12.836Z,0
2016-06-03T00:47:16.013Z,0
2016-06-03T00:48:35.220Z,0
2016-06-03T00:49:16.035Z,0
2016-06-03T00:51:19.305Z,0
2016-06-03T00:51:31.962Z,0
2016-06-03T00:52:51.405Z,0
2016-06-03T00:53:39.671Z,0
2016-06-03T00:54:31.985Z,0
2016-06-03T00:55:32.098Z,0
2016-06-03T00:56:32.054Z,0
2016-06-03T00:57:32.182Z,0
2016-06-03T00:58:32.107Z,0
2016-06-03T00:59:44.704Z,0
2016-06-03T01:00:32.142Z,0
2016-06-03T01:01:51.429Z,0
2016-06-03T01:02:33.601Z,0
2016-06-03T01:03:57.997Z,0
2016-06-03T01:04:32.247Z,0
2016-06-03T01:06:45.037Z,0
2016-06-03T01:07:32.318Z,0
2016-06-03T01:08:51.589Z,0
2016-06-03T01:09:45.935Z,0
2016-06-03T01:10:58.500Z,0
2016-06-03T01:12:03.675Z,0
2016-06-03T01:13:03.677Z,0
2016-06-03T01:14:03.727Z,0
2016-06-03T01:14:32.492Z,0
2016-06-03T01:15:32.464Z,0
2016-06-03T01:16:32.498Z,0
2016-06-03T01:17:33.782Z,0
2016-06-03T01:18:45.256Z,0
2016-06-03T01:19:35.569Z,0
2016-06-03T01:20:51.793Z,0
2016-06-03T01:21:38.855Z,0
2016-06-03T01:22:58.314Z,0
2016-06-03T01:23:32.533Z,0
2016-06-03T01:25:03.819Z,0
2016-06-03T01:25:33.225Z,0
2016-06-03T01:26:32.728Z,0
2016-06-03T01:27:45.483Z,0
2016-06-03T01:28:32.765Z,0
2016-06-03T01:29:32.642Z,0
2016-06-03T01:30:32.801Z,0
2016-06-03T01:31:45.570Z,0
2016-06-03T01:32:32.963Z,0
2016-06-03T01:33:34.278Z,0
2016-06-03T01:34:34.296Z,0
2016-06-03T01:35:45.627Z,0
2016-06-03T01:36:32.786Z,0
2016-06-03T01:37:32.961Z,0
2016-06-03T01:38:45.573Z,0
2016-06-03T01:39:34.403Z,0
2016-06-03T01:40:45.720Z,0
2016-06-03T01:41:36.065Z,0
2016-06-03T01:42:45.817Z,0
2016-06-03T01:43:33.070Z,0
2016-06-03T01:45:35.701Z,0
2016-06-03T01:45:48.360Z,0
2016-06-03T01:46:48.566Z,0
2016-06-03T01:47:48.397Z,0
2016-06-03T01:49:01.133Z,0
2016-06-03T01:49:48.433Z,0
2016-06-03T01:51:01.217Z,0
2016-06-03T01:51:48.455Z,0
2016-06-03T01:53:19.786Z,0
2016-06-03T01:53:48.521Z,0
2016-06-03T01:54:49.868Z,0
2016-06-03T01:55:48.699Z,0
2016-06-03T01:56:51.624Z,0
2016-06-03T01:57:48.610Z,0
2016-06-03T01:58:48.645Z,0
2016-06-03T01:59:48.788Z,0
2016-06-03T02:00:48.666Z,0
2016-06-03T02:01:48.762Z,0
2016-06-03T02:03:01.453Z,0
2016-06-03T02:04:01.487Z,0
2016-06-03T02:04:48.754Z,0
2016-06-03T02:06:01.476Z,0
2016-06-03T02:07:01.542Z,0
2016-06-03T02:07:48.856Z,0
2016-06-03T02:08:51.798Z,0
2016-06-03T02:09:51.018Z,0
2016-06-03T02:10:48.912Z,0
2016-06-03T02:12:08.117Z,0
2016-06-03T02:12:48.964Z,0
2016-06-03T02:13:48.936Z,0
2016-06-03T02:15:01.704Z,0
2016-06-03T02:16:01.737Z,0
2016-06-03T02:17:08.381Z,0
2016-06-03T02:18:08.102Z,0
2016-06-03T02:19:16.152Z,0
2016-06-03T02:20:14.764Z,0
2016-06-03T02:20:49.110Z,0
2016-06-03T02:23:30.038Z,0
2016-06-03T02:24:04.352Z,0
2016-06-03T02:25:05.090Z,0
2016-06-03T02:26:17.014Z,0
2016-06-03T02:27:07.516Z,0
2016-06-03T02:28:04.332Z,0
2016-06-03T02:29:10.757Z,0
2016-06-03T02:30:17.369Z,0
2016-06-03T02:31:04.560Z,0
2016-06-03T02:32:04.562Z,0
2016-06-03T02:33:06.002Z,0
2016-06-03T02:34:04.646Z,0
2016-06-03T02:35:10.868Z,0
2016-06-03T02:36:07.666Z,0
2016-06-03T02:37:04.669Z,0
2016-06-03T02:38:04.703Z,0
2016-06-03T02:39:04.721Z,0
2016-06-03T02:40:17.349Z,0
2016-06-03T02:41:17.492Z,0
2016-06-03T02:42:30.448Z,0
2016-06-03T02:43:24.029Z,0
2016-06-03T02:44:36.125Z,0
2016-06-03T02:45:07.909Z,0
2016-06-03T02:47:04.946Z,0
2016-06-03T02:48:07.792Z,0
2016-06-03T02:49:17.654Z,0
2016-06-03T02:50:04.953Z,0
2016-06-03T02:51:24.175Z,5
2016-06-03T02:52:17.725Z,5
2016-06-03T02:53:08.040Z,5
2016-06-03T02:54:04.902Z,5
2016-06-03T02:55:11.749Z,5
2016-06-03T02:56:05.830Z,5
2016-06-03T02:57:05.097Z,5
2016-06-03T02:58:05.179Z,5
2016-06-03T02:59:17.869Z,5
2016-06-03T03:00:05.169Z,5
2016-06-03T03:01:30.827Z,10
2016-06-03T03:02:05.174Z,10
2016-06-03T03:03:36.535Z,10
2016-06-03T03:04:05.241Z,10
2016-06-03T03:05:05.338Z,10
2016-06-03T03:07:08.625Z,10
2016-06-03T03:08:34.299Z,15
2016-06-03T03:09:21.379Z,15
2016-06-03T03:11:05.635Z,15
2016-06-03T03:12:08.888Z,15
2016-06-03T03:13:18.501Z,20
2016-06-03T03:13:31.141Z,20
2016-06-03T03:14:31.253Z,20
2016-06-03T03:15:43.943Z,20
2016-06-03T03:16:43.945Z,25
2016-06-03T03:17:56.936Z,25
2016-06-03T03:20:36.863Z,30
2016-06-03T03:21:18.458Z,30
2016-06-03T03:22:05.587Z,30
2016-06-03T03:23:18.481Z,35
2016-06-03T03:24:05.780Z,35
2016-06-03T03:26:03.005Z,40
2016-06-03T03:26:15.645Z,40
2016-06-03T03:27:15.694Z,40
2016-06-03T03:28:15.680Z,40
2016-06-03T03:29:15.793Z,45
2016-06-03T03:30:15.749Z,45
2016-06-03T03:31:15.845Z,50
2016-06-03T03:32:15.786Z,50
2016-06-03T03:33:28.538Z,55
2016-06-03T03:34:28.557Z,55
2016-06-03T03:35:41.528Z,60
2016-06-03T03:36:41.438Z,65
2016-06-03T03:38:18.489Z,65
2016-06-03T03:38:50.382Z,65
2016-06-03T03:41:05.873Z,70
2016-06-03T03:42:06.203Z,75
2016-06-03T03:43:06.034Z,75
2016-06-03T03:44:09.083Z,80
2016-06-03T03:45:18.649Z,85
2016-06-03T03:46:12.401Z,90
2016-06-03T03:47:06.123Z,95
2016-06-03T03:49:03.128Z,95
2016-06-03T03:50:25.490Z,95
2016-06-03T03:50:41.256Z,95
2016-06-03T03:51:38.165Z,100
2016-06-03T03:54:57.253Z,110
2016-06-03T03:55:53.960Z,115
2016-06-03T03:57:06.883Z,120
2016-06-03T03:58:29.262Z,125
2016-06-03T03:59:44.499Z,130
2016-06-03T04:00:16.377Z,130
2016-06-03T04:00:57.161Z,130
2016-06-03T04:02:59.791Z,140
2016-06-03T04:03:31.635Z,140
2016-06-03T04:04:31.668Z,145
2016-06-03T04:06:34.252Z,150
2016-06-03T04:06:46.908Z,150
2016-06-03T04:07:46.926Z,155
2016-06-03T04:08:46.961Z,155
2016-06-03T04:09:47.026Z,160
2016-06-03T04:10:48.403Z,160
2016-06-03T04:11:59.846Z,165
2016-06-03T04:12:59.662Z,170
2016-06-03T04:13:47.193Z,170
2016-06-03T04:15:50.307Z,175
2016-06-03T04:16:02.966Z,175
2016-06-03T04:17:03.094Z,185
2016-06-03T04:18:03.003Z,190
2016-06-03T04:19:15.834Z,195
2016-06-03T04:20:12.306Z,195
2016-06-03T04:21:28.761Z,200
2016-06-03T04:22:03.092Z,200
2016-06-03T04:23:28.767Z,200
2016-06-03T04:24:03.129Z,205
2016-06-03T04:26:05.728Z,215
2016-06-03T04:26:44.025Z,215
2016-06-03T04:27:18.433Z,220
2016-06-03T04:29:20.986Z,225
2016-06-03T04:29:59.411Z,225
2016-06-03T04:30:33.677Z,225
2016-06-03T04:32:36.291Z,225
2016-06-03T04:33:14.747Z,225
2016-06-03T04:33:49.122Z,225
2016-06-03T04:35:51.705Z,230
2016-06-03T04:36:04.380Z,230
2016-06-03T04:37:04.413Z,230
2016-06-03T04:38:12.119Z,235
2016-06-03T04:39:04.543Z,240
2016-06-03T04:40:24.422Z,245
2016-06-03T04:41:23.706Z,245
2016-06-03T04:42:35.662Z,250
2016-06-03T04:43:30.304Z,255
2016-06-03T04:44:35.854Z,265
2016-06-03T04:45:36.513Z,270
2016-06-03T04:47:49.457Z,275
2016-06-03T04:48:06.084Z,280
2016-06-03T04:49:17.383Z,285
2016-06-03T04:50:04.698Z,295
2016-06-03T04:51:04.733Z,310
2016-06-03T04:52:04.939Z,365
2016-06-03T04:54:14.194Z,525
2016-06-03T04:55:33.540Z,520
2016-06-03T04:56:08.356Z,525
2016-06-03T04:58:05.111Z,550
2016-06-03T04:58:17.580Z,555
2016-06-03T05:00:14.757Z,615
2016-06-03T05:00:27.413Z,625
2016-06-03T05:01:27.571Z,670
2016-06-03T05:02:30.481Z,750
2016-06-03T05:03:46.686Z,815
2016-06-03T05:04:33.814Z,845
2016-06-03T05:06:30.116Z,915
2016-06-03T05:07:08.416Z,915
2016-06-03T05:07:42.791Z,930
2016-06-03T05:09:42.968Z,955
2016-06-03T05:09:56.346Z,950
2016-06-03T05:12:11.555Z,925
2016-06-03T05:13:31.604Z,910
2016-06-03T05:14:05.341Z,900
2016-06-03T05:15:05.391Z,910
2016-06-03T05:16:05.471Z,930
2016-06-03T05:17:05.395Z,930
2016-06-03T05:18:05.430Z,970
2016-06-03T05:19:24.651Z,980
2016-06-03T05:20:05.514Z,975
2016-06-03T05:21:32.625Z,1025
2016-06-03T05:22:05.534Z,1020
2016-06-03T05:24:08.806Z,1065
2016-06-03T05:24:21.462Z,1060
2016-06-03T05:25:22.152Z,1065
2016-06-03T05:26:21.498Z,1065
2016-06-03T05:27:21.564Z,1070
2016-06-03T05:28:21.598Z,1070
2016-06-03T05:29:21.600Z,1050
2016-06-03T05:30:21.650Z,1040
2016-06-03T05:31:21.653Z,1045
2016-06-03T05:32:21.828Z,1080
2016-06-03T05:33:21.766Z,1100
2016-06-03T05:34:21.754Z,1105
2016-06-03T05:35:21.632Z,1060
2016-06-03T05:36:21.822Z,1105
2016-06-03T05:37:21.902Z,1140
2016-06-03T05:38:21.905Z,1135
2016-06-03T05:39:23.362Z,1135
2016-06-03T05:40:21.911Z,1065
2016-06-03T05:41:22.070Z,1185
2016-06-03T05:42:22.041Z,1180
2016-06-03T05:43:22.091Z,1190
2016-06-03T05:44:22.126Z,1190
2016-06-03T05:45:22.128Z,1230
2016-06-03T05:46:22.177Z,1215
2016-06-03T05:47:22.274Z,1225
2016-06-03T05:48:22.262Z,1220
2016-06-03T05:49:22.279Z,1225
2016-06-03T05:50:22.282Z,1195
2016-06-03T05:51:22.348Z,1260
2016-06-03T05:52:28.522Z,1290
2016-06-03T05:53:22.430Z,1245
2016-06-03T05:54:35.323Z,1195
2016-06-03T05:55:29.514Z,1295
2016-06-03T05:57:19.488Z,1240
2016-06-03T05:57:32.175Z,1240
2016-06-03T05:58:32.178Z,1260
2016-06-03T05:59:32.212Z,1275
2016-06-03T06:00:32.214Z,1285
2016-06-03T06:01:32.311Z,1275
2016-06-03T06:02:32.330Z,1335
2016-06-03T06:03:45.083Z,1310
2016-06-03T06:04:45.100Z,1390
2016-06-03T06:06:42.106Z,1485
2016-06-03T06:06:55.344Z,1495
2016-06-03T06:08:01.065Z,655
2016-06-03T06:09:07.552Z,550
2016-06-03T06:10:08.007Z,540
2016-06-03T06:11:21.042Z,1450
2016-06-03T06:13:26.218Z,1500
2016-06-03T06:14:17.284Z,1405
2016-06-03T06:14:38.862Z,1365
2016-06-03T06:16:41.554Z,1460
2016-06-03T06:17:13.417Z,1520
2016-06-03T06:17:54.292Z,1545
2016-06-03T06:19:58.315Z,1500
2016-06-03T06:20:30.206Z,1530
2016-06-03T06:21:10.975Z,1605
2016-06-03T06:23:16.512Z,1635
2016-06-03T06:23:54.840Z,1545
2016-06-03T06:24:29.186Z,1585
2016-06-03T06:26:20.082Z,1480
2016-06-03T06:26:32.567Z,1575
2016-06-03T06:28:29.711Z,1650
2016-06-03T06:28:48.727Z,1685
2016-06-03T06:30:13.764Z,1580
2016-06-03T06:30:55.186Z,1205
2016-06-03T06:31:42.548Z,1530
2016-06-03T06:32:42.488Z,1420
2016-06-03T06:33:42.569Z,1160
2016-06-03T06:34:42.572Z,920
2016-06-03T06:36:01.905Z,815
2016-06-03T06:36:42.718Z,1030
2016-06-03T06:37:55.439Z,965
2016-06-03T06:38:42.880Z,975
2016-06-03T06:39:43.773Z,1505
2016-06-03T06:40:44.933Z,710
2016-06-03T06:41:44.294Z,1795
2016-06-03T06:42:42.968Z,725
2016-06-03T06:44:02.146Z,1930
2016-06-03T06:44:44.365Z,1920
2016-06-03T06:46:39.979Z,1760
2016-06-03T06:47:18.412Z,1800
2016-06-03T06:47:52.709Z,1795
2016-06-03T06:49:55.379Z,1640
2016-06-03T06:50:27.315Z,1665
2016-06-03T06:51:08.204Z,1710
2016-06-03T06:52:27.375Z,1765
2016-06-03T06:53:08.231Z,1810
2016-06-03T06:54:08.259Z,1855
2016-06-03T06:55:15.820Z,1865
2016-06-03T06:56:27.551Z,1905
2016-06-03T06:57:58.923Z,1885
2016-06-03T06:59:08.538Z,1740
2016-06-03T06:59:21.179Z,1755
2016-06-03T07:01:11.817Z,1725
2016-06-03T07:02:21.274Z,1730
2016-06-03T07:03:30.981Z,1540
2016-06-03T07:03:59.390Z,1670
2016-06-03T07:07:59.140Z,1895
2016-06-03T07:09:59.178Z,1790
2016-06-03T07:11:02.869Z,1780
2016-06-03T07:12:50.887Z,1710
2016-06-03T07:14:22.221Z,965
2016-06-03T07:15:06.145Z,1010
2016-06-03T07:15:35.223Z,1160
2016-06-03T07:17:32.025Z,830
2016-06-03T07:17:44.806Z,710
2016-06-03T07:19:44.719Z,600
2016-06-03T07:19:57.437Z,600
2016-06-03T07:21:28.677Z,615
2016-06-03T07:21:57.520Z,640
2016-06-03T07:22:57.477Z,700
2016-06-03T07:24:16.732Z,670
2016-06-03T07:24:58.329Z,700
2016-06-03T07:26:23.878Z,845
2016-06-03T07:26:57.566Z,1260
2016-06-03T07:28:28.946Z,1565
2016-06-03T07:29:10.464Z,1975
2016-06-03T07:29:57.746Z,2055
2016-06-03T07:31:48.486Z,2000
2016-06-03T07:32:58.257Z,1945
2016-06-03T07:34:04.368Z,1430
2016-06-03T07:34:42.680Z,1530
2016-06-03T07:37:22.799Z,1425
2016-06-03T07:37:35.455Z,1495
2016-06-03T07:39:25.976Z,1555
2016-06-03T07:41:14.794Z,1110
2016-06-03T07:44:25.989Z,1515
2016-06-03T07:45:00.539Z,1545
2016-06-03T07:47:03.106Z,1665
2016-06-03T07:47:41.434Z,1645
2016-06-03T07:48:15.656Z,1660
2016-06-03T07:50:18.489Z,1540
2016-06-03T07:50:56.927Z,1545
2016-06-03T07:51:31.180Z,1535
2016-06-03T07:53:33.825Z,1360
2016-06-03T07:54:12.172Z,1365
2016-06-03T07:54:47.906Z,1320
2016-06-03T07:56:49.131Z,1080
2016-06-03T07:57:27.524Z,1310
2016-06-03T07:58:01.855Z,1470
2016-06-03T08:00:04.485Z,1515
2016-06-03T08:00:42.829Z,1475
2016-06-03T08:01:17.207Z,1170
2016-06-03T08:03:19.806Z,1510
2016-06-03T08:03:58.150Z,1440
2016-06-03T08:04:32.511Z,1460
2016-06-03T08:05:58.202Z,1535
2016-06-03T08:06:32.641Z,1595
2016-06-03T08:08:51.835Z,1415
2016-06-03T08:09:32.696Z,1400
2016-06-03T08:11:03.921Z,1150
2016-06-03T08:11:32.765Z,970
2016-06-03T08:12:32.830Z,730
2016-06-03T08:13:33.035Z,710
2016-06-03T08:14:45.601Z,705
2016-06-03T08:15:52.135Z,695
2016-06-03T08:17:55.625Z,690
2016-06-03T08:18:39.706Z,685
2016-06-03T08:20:10.898Z,680
2016-06-03T08:20:42.914Z,680
2016-06-03T08:21:23.432Z,660
2016-06-03T08:22:25.091Z,680
2016-06-03T08:23:23.656Z,685
2016-06-03T08:24:23.690Z,695
2016-06-03T08:25:25.475Z,725
2016-06-03T08:26:36.539Z,720
2016-06-03T08:27:23.808Z,715
2016-06-03T08:28:36.436Z,705
2016-06-03T08:29:36.735Z,695
2016-06-03T08:30:49.691Z,690
2016-06-03T08:32:52.618Z,695
2016-06-03T08:33:52.496Z,685
2016-06-03T08:34:34.920Z,675
2016-06-03T08:36:35.941Z,665
2016-06-03T08:37:01.194Z,665
2016-06-03T08:37:48.632Z,660
2016-06-03T08:39:01.402Z,660
2016-06-03T08:40:01.858Z,650
2016-06-03T08:40:48.921Z,645
2016-06-03T08:42:09.473Z,645
2016-06-03T08:43:01.523Z,640
2016-06-03T08:45:04.154Z,640
2016-06-03T08:45:16.857Z,635
2016-06-03T08:47:29.611Z,625
2016-06-03T08:48:20.084Z,610
2016-06-03T08:49:42.711Z,600
2016-06-03T08:50:16.964Z,600
2016-06-03T08:52:32.234Z,595
2016-06-03T08:53:32.377Z,585
2016-06-03T08:54:44.881Z,570
2016-06-03T08:55:33.445Z,560
2016-06-03T08:56:58.026Z,550
2016-06-03T08:57:35.420Z,535
2016-06-03T08:59:35.019Z,505
2016-06-03T08:59:47.753Z,510
2016-06-03T09:01:06.930Z,540
2016-06-03T09:01:49.164Z,540
2016-06-03T09:03:19.045Z,530
2016-06-03T09:04:00.545Z,530
2016-06-03T09:04:49.267Z,535
2016-06-03T09:06:44.819Z,540
2016-06-03T09:06:57.460Z,530
2016-06-03T09:07:57.509Z,525
2016-06-03T09:09:05.280Z,515
2016-06-03T09:10:10.908Z,510
2016-06-03T09:11:23.270Z,505
2016-06-03T09:12:13.382Z,505
2016-06-03T09:14:00.260Z,500
2016-06-03T09:14:12.935Z,500
2016-06-03T09:15:12.952Z,500
2016-06-03T09:16:25.830Z,490
2016-06-03T09:17:16.083Z,490
2016-06-03T09:18:25.790Z,480
2016-06-03T09:19:19.292Z,470
2016-06-03T09:20:16.154Z,465
2016-06-03T09:21:25.906Z,460
2016-06-03T09:22:13.159Z,455
2016-06-03T09:23:13.209Z,465
2016-06-03T09:24:13.227Z,465
2016-06-03T09:25:22.183Z,470
2016-06-03T09:26:16.356Z,465
2016-06-03T09:27:38.985Z,455
2016-06-03T09:28:26.331Z,455
2016-06-03T09:29:44.661Z,465
2016-06-03T09:30:39.072Z,465
2016-06-03T09:32:41.685Z,470
2016-06-03T09:33:13.610Z,480
2016-06-03T09:34:25.661Z,480
2016-06-03T09:35:51.428Z,475
2016-06-03T09:36:35.353Z,470
2016-06-03T09:37:16.840Z,470
2016-06-03T09:38:04.168Z,475
2016-06-03T09:39:23.330Z,475
2016-06-03T09:40:07.379Z,475
2016-06-03T09:41:30.241Z,480
2016-06-03T09:43:32.950Z,485
2016-06-03T09:44:20.235Z,485
2016-06-03T09:45:08.893Z,485
2016-06-03T09:46:33.004Z,505
2016-06-03T09:48:41.994Z,520
2016-06-03T09:49:10.591Z,545
2016-06-03T09:50:10.734Z,585
2016-06-03T09:51:23.503Z,565
2016-06-03T09:52:10.834Z,535
2016-06-03T09:53:30.195Z,480
2016-06-03T09:54:10.870Z,490
2016-06-03T09:56:19.797Z,500
2016-06-03T09:56:45.359Z,490
2016-06-03T09:57:38.753Z,430
2016-06-03T09:59:04.442Z,470
2016-06-03T09:59:34.024Z,485
2016-06-03T10:00:33.137Z,500
2016-06-03T10:02:41.470Z,475
2016-06-03T10:02:54.111Z,465
2016-06-03T10:04:07.084Z,435
2016-06-03T10:04:54.194Z,440
2016-06-03T10:06:13.403Z,440
2016-06-03T10:07:03.590Z,445
2016-06-03T10:08:25.579Z,470
2016-06-03T10:09:07.036Z,500
2016-06-03T10:09:55.161Z,545
2016-06-03T10:11:13.416Z,575
2016-06-03T10:11:57.432Z,565
2016-06-03T10:13:25.812Z,530
2016-06-03T10:13:55.718Z,535
2016-06-03T10:15:25.785Z,600
2016-06-03T10:15:57.551Z,620
2016-06-03T10:16:54.632Z,630
2016-06-03T10:18:07.341Z,615
2016-06-03T10:19:07.359Z,585
2016-06-03T10:21:09.959Z,515
2016-06-03T10:21:22.599Z,510
2016-06-03T10:22:22.664Z,530
2016-06-03T10:23:35.464Z,545
2016-06-03T10:24:22.700Z,580
2016-06-03T10:25:48.265Z,560
2016-06-03T10:26:24.207Z,555
2016-06-03T10:27:22.803Z,545
2016-06-03T10:28:22.806Z,500
2016-06-03T10:29:35.573Z,545
2016-06-03T10:30:35.717Z,555
2016-06-03T10:31:48.579Z,510
2016-06-03T10:32:35.706Z,520
2016-06-03T10:34:19.930Z,500
2016-06-03T10:34:38.883Z,500
2016-06-03T10:36:35.045Z,475
2016-06-03T10:36:53.983Z,475
2016-06-03T10:37:47.719Z,455
2016-06-03T10:38:55.442Z,465
2016-06-03T10:39:47.897Z,515
2016-06-03T10:40:47.525Z,520
2016-06-03T10:41:49.121Z,515
2016-06-03T10:42:55.577Z,530
2016-06-03T10:44:07.223Z,615
2016-06-03T10:45:00.770Z,610
2016-06-03T10:46:00.726Z,575
2016-06-03T10:46:48.026Z,525
2016-06-03T10:49:03.437Z,495
2016-06-03T10:50:03.455Z,515
2016-06-03T10:51:22.602Z,550
2016-06-03T10:52:22.635Z,555
2016-06-03T10:53:34.825Z,540
2016-06-03T10:54:16.235Z,535
2016-06-03T10:55:35.268Z,540
2016-06-03T10:56:04.815Z,550
2016-06-03T10:57:03.678Z,560
2016-06-03T10:58:06.321Z,565
2016-06-03T10:59:06.714Z,575
2016-06-03T11:00:09.984Z,570
2016-06-03T11:01:03.703Z,575
2016-06-03T11:02:16.584Z,565
2016-06-03T11:03:05.006Z,550
2016-06-03T11:04:22.995Z,575
2016-06-03T11:05:03.824Z,575
2016-06-03T11:06:05.108Z,565
2016-06-03T11:07:05.391Z,560
2016-06-03T11:08:03.925Z,565
2016-06-03T11:09:03.975Z,570
2016-06-03T11:10:07.340Z,575
2016-06-03T11:11:18.139Z,550
2016-06-03T11:12:10.361Z,515
2016-06-03T11:13:04.017Z,505
2016-06-03T11:14:16.866Z,475
2016-06-03T11:15:16.931Z,460
2016-06-03T11:16:29.934Z,455
2016-06-03T11:17:29.890Z,475
2016-06-03T11:18:35.518Z,470
2016-06-03T11:19:16.990Z,465
2016-06-03T11:22:01.276Z,450
2016-06-03T11:22:13.966Z,455
2016-06-03T11:23:13.984Z,460
2016-06-03T11:24:26.862Z,455
2016-06-03T11:25:27.239Z,445
2016-06-03T11:26:14.290Z,435
2016-06-03T11:28:11.076Z,415
2016-06-03T11:29:59.048Z,415
2016-06-03T11:32:45.633Z,415
2016-06-03T11:33:17.433Z,420
2016-06-03T11:35:20.939Z,435
2016-06-03T11:36:27.082Z,420
2016-06-03T11:37:17.538Z,410
2016-06-03T11:38:40.400Z,425
2016-06-03T11:39:14.590Z,420
2016-06-03T11:41:07.749Z,420
2016-06-03T11:41:23.486Z,425
2016-06-03T11:43:23.100Z,420
2016-06-03T11:43:55.022Z,420
2016-06-03T11:44:35.807Z,415
2016-06-03T11:46:38.437Z,430
2016-06-03T11:47:16.752Z,440
2016-06-03T11:47:51.252Z,440
2016-06-03T11:49:22.446Z,435
2016-06-03T11:49:57.461Z,435
2016-06-03T11:51:24.060Z,425
2016-06-03T11:53:20.065Z,410
2016-06-03T11:54:13.708Z,405
2016-06-03T11:56:00.023Z,385
2016-06-03T11:56:31.667Z,380
2016-06-03T11:57:12.779Z,360
2016-06-03T11:58:33.579Z,380
2016-06-03T11:59:14.487Z,380
2016-06-03T12:00:41.646Z,390
2016-06-03T12:01:15.790Z,385
2016-06-03T12:03:15.529Z,375
2016-06-03T12:03:53.686Z,365
2016-06-03T12:04:28.219Z,355
2016-06-03T12:06:30.819Z,330
2016-06-03T12:07:09.164Z,325
2016-06-03T12:07:43.633Z,325
2016-06-03T12:09:46.249Z,330
2016-06-03T12:10:25.501Z,320
2016-06-03T12:10:59.610Z,325
2016-06-03T12:12:24.663Z,315
2016-06-03T12:13:11.822Z,315
2016-06-03T12:14:32.481Z,315
2016-06-03T12:15:49.452Z,300
2016-06-03T12:16:59.127Z,320
2016-06-03T12:18:08.566Z,325
2016-06-03T12:18:21.289Z,325
2016-06-03T12:20:19.654Z,340
2016-06-03T12:21:22.843Z,350
2016-06-03T12:22:26.018Z,365
2016-06-03T12:22:57.909Z,365
2016-06-03T12:24:38.711Z,340
2016-06-03T12:24:51.477Z,340
2016-06-03T12:27:10.625Z,340
2016-06-03T12:29:19.771Z,380
2016-06-03T12:30:03.709Z,360
2016-06-03T12:30:38.727Z,345
2016-06-03T12:32:35.092Z,330
2016-06-03T12:33:06.951Z,330
2016-06-03T12:33:47.782Z,325
2016-06-03T12:35:50.397Z,325
2016-06-03T12:36:22.384Z,335
2016-06-03T12:37:03.072Z,330
2016-06-03T12:39:06.373Z,280
2016-06-03T12:40:48.628Z,300
2016-06-03T12:41:22.272Z,310
2016-06-03T12:43:24.887Z,325
2016-06-03T12:44:03.247Z,335
2016-06-03T12:44:37.436Z,325
2016-06-03T12:46:08.924Z,350
2016-06-03T12:46:50.395Z,355
2016-06-03T12:47:40.663Z,365
2016-06-03T12:48:57.541Z,370
2016-06-03T12:49:37.794Z,365
2016-06-03T12:51:34.752Z,365
2016-06-03T12:51:47.346Z,375
2016-06-03T12:53:44.460Z,375
2016-06-03T12:55:52.168Z,430
2016-06-03T12:56:19.484Z,440
2016-06-03T12:58:03.284Z,455
2016-06-03T12:58:22.240Z,440
2016-06-03T12:59:15.993Z,445
2016-06-03T13:00:15.980Z,435
2016-06-03T13:01:28.795Z,400
2016-06-03T13:02:23.750Z,380
2016-06-03T13:04:31.381Z,395
2016-06-03T13:06:40.996Z,390
2016-06-03T13:08:06.781Z,385
2016-06-03T13:08:53.642Z,375
2016-06-03T13:10:44.085Z,355
2016-06-03T13:11:16.134Z,355
2016-06-03T13:11:56.759Z,350
2016-06-03T13:14:00.811Z,340
2016-06-03T13:14:39.158Z,345
2016-06-03T13:15:13.630Z,350
2016-06-03T13:17:16.135Z,370
2016-06-03T13:17:54.650Z,385
2016-06-03T13:18:28.810Z,390
2016-06-03T13:20:31.721Z,365
2016-06-03T13:20:44.502Z,365
2016-06-03T13:21:44.427Z,350
2016-06-03T13:23:03.617Z,335
2016-06-03T13:23:45.744Z,360
2016-06-03T13:25:16.515Z,345
2016-06-03T13:25:47.843Z,345
2016-06-03T13:28:12.662Z,375
2016-06-03T13:28:25.446Z,385
2016-06-03T13:30:28.013Z,420
2016-06-03T13:30:40.685Z,420
2016-06-03T13:31:40.782Z,430
2016-06-03T13:32:53.472Z,460
2016-06-03T13:33:53.475Z,505
2016-06-03T13:35:43.980Z,590
2016-06-03T13:36:44.109Z,610
2016-06-03T13:37:44.548Z,620
2016-06-03T13:38:57.020Z,600
2016-06-03T13:39:49.662Z,565
2016-06-03T13:41:03.525Z,525
2016-06-03T13:41:57.042Z,535
2016-06-03T13:43:15.455Z,560
2016-06-03T13:44:34.738Z,580
2016-06-03T13:44:48.754Z,580
2016-06-03T13:46:44.447Z,560
2016-06-03T13:46:57.088Z,545
2016-06-03T13:47:57.137Z,555
2016-06-03T13:49:00.328Z,570
2016-06-03T13:50:10.674Z,545
2016-06-03T13:51:01.755Z,525
2016-06-03T13:52:22.963Z,520
2016-06-03T13:53:00.354Z,520
2016-06-03T13:53:58.950Z,500
2016-06-03T13:54:58.141Z,495
2016-06-03T13:55:57.690Z,500
2016-06-03T13:56:57.568Z,515
2016-06-03T13:58:10.335Z,495
2016-06-03T13:58:58.823Z,495
2016-06-03T14:00:00.920Z,490
2016-06-03T14:01:10.359Z,500
2016-06-03T14:01:57.582Z,500
2016-06-03T14:03:16.899Z,505
2016-06-03T14:04:10.540Z,510
2016-06-03T14:04:59.198Z,515
2016-06-03T14:05:57.811Z,540
2016-06-03T14:06:57.782Z,555
2016-06-03T14:07:57.801Z,550
2016-06-03T14:09:10.695Z,535
2016-06-03T14:10:10.805Z,520
2016-06-03T14:10:57.950Z,515
2016-06-03T14:11:57.920Z,505
2016-06-03T14:12:57.986Z,525
2016-06-03T14:14:01.019Z,565
2016-06-03T14:14:58.053Z,565
2016-06-03T14:15:58.072Z,560
2016-06-03T14:16:58.512Z,555
2016-06-03T14:17:59.749Z,560
2016-06-03T14:18:58.174Z,610
2016-06-03T14:20:01.160Z,640
2016-06-03T14:20:58.195Z,660
2016-06-03T14:22:12.385Z,635
2016-06-03T14:22:58.263Z,625
2016-06-03T14:24:17.643Z,615
2016-06-03T14:25:01.799Z,615
2016-06-03T14:26:23.914Z,585
2016-06-03T14:26:58.399Z,565
2016-06-03T14:27:58.448Z,540
2016-06-03T14:28:58.560Z,515
2016-06-03T14:30:00.781Z,485
2016-06-03T14:30:58.566Z,455
2016-06-03T14:31:58.584Z,430
2016-06-03T14:32:58.586Z,410
2016-06-03T14:33:58.667Z,395
2016-06-03T14:35:01.373Z,375
2016-06-03T14:35:58.829Z,350
2016-06-03T14:36:58.707Z,345
2016-06-03T14:37:58.912Z,335
2016-06-03T14:38:58.759Z,325
2016-06-03T14:39:59.964Z,320
2016-06-03T14:40:58.937Z,310
2016-06-03T14:41:58.892Z,330
2016-06-03T14:42:58.910Z,350
2016-06-03T14:43:58.960Z,380
2016-06-03T14:45:00.853Z,415
2016-06-03T14:45:59.012Z,435
2016-06-03T14:46:59.234Z,450
2016-06-03T14:47:59.127Z,470
2016-06-03T14:48:59.177Z,490
2016-06-03T14:50:02.430Z,500
2016-06-03T14:51:00.572Z,490
2016-06-03T14:51:59.169Z,490
2016-06-03T14:52:59.249Z,500
2016-06-03T14:53:59.096Z,495
2016-06-03T14:55:02.489Z,490
2016-06-03T14:55:59.930Z,475
2016-06-03T14:57:18.607Z,440
2016-06-03T14:58:01.044Z,430
2016-06-03T15:00:02.096Z,420
2016-06-03T15:00:14.768Z,425
2016-06-03T15:01:14.802Z,445
2016-06-03T15:02:14.868Z,470
2016-06-03T15:03:14.870Z,495
2016-06-03T15:04:15.046Z,520
2016-06-03T15:05:15.063Z,550
2016-06-03T15:06:15.065Z,570